createdAt,value
2023-02-13T00:00:05.169Z,18.87
2023-02-13T00:02:31.994Z,16.17
2023-02-13T00:04:59.004Z,16.57
2023-02-13T00:07:25.617Z,12.57
2023-02-13T00:09:52.015Z,14.80
2023-02-13T00:12:18.787Z,12.87
2023-02-13T00:14:45.004Z,13.37
2023-02-13T00:17:11.524Z,15.77
2023-02-13T00:19:37.660Z,21.07
2023-02-13T00:22:04.189Z,22.30
2023-02-13T00:24:30.362Z,17.57
2023-02-13T00:26:56.803Z,16.17
2023-02-13T00:29:23.115Z,15.93
2023-02-13T00:31:49.611Z,16.20
2023-02-13T00:34:15.844Z,30.40
2023-02-13T00:36:42.245Z,15.77
2023-02-13T00:39:11.284Z,13.83
2023-02-13T00:41:38.860Z,12.43
2023-02-13T00:44:05.176Z,13.23
2023-02-13T00:46:31.676Z,13.80
2023-02-13T00:48:57.885Z,12.10
2023-02-13T00:51:25.407Z,14.87
2023-02-13T00:53:51.667Z,11.53
2023-02-13T00:56:18.127Z,14.23
2023-02-13T00:58:44.934Z,12.40
2023-02-13T01:01:11.505Z,15.00
2023-02-13T01:03:37.947Z,12.87
2023-02-13T01:06:05.023Z,12.53
2023-02-13T01:08:32.856Z,13.60
2023-02-13T01:11:00.033Z,16.47
2023-02-13T01:13:26.698Z,15.07
2023-02-13T01:15:53.828Z,12.60
2023-02-13T01:18:20.297Z,15.83
2023-02-13T01:20:56.944Z,15.63
2023-02-13T01:23:23.465Z,14.57
2023-02-13T01:25:51.626Z,14.77
2023-02-13T01:28:18.490Z,15.03
2023-02-13T01:30:45.003Z,17.23
2023-02-13T01:33:11.345Z,14.80
2023-02-13T01:35:40.897Z,14.23
2023-02-13T01:38:08.953Z,12.37
2023-02-13T01:40:35.559Z,12.97
2023-02-13T01:43:01.654Z,15.53
2023-02-13T01:45:30.010Z,15.00
2023-02-13T01:48:01.661Z,13.73
2023-02-13T01:50:40.686Z,14.37
2023-02-13T01:53:31.272Z,17.47
2023-02-13T01:56:27.880Z,13.47
2023-02-13T01:58:59.784Z,13.53
2023-02-13T02:01:27.884Z,14.77
2023-02-13T02:04:13.021Z,20.23
2023-02-13T02:06:43.663Z,16.03
2023-02-13T02:09:16.112Z,15.93
2023-02-13T02:11:58.723Z,16.67
2023-02-13T02:14:26.756Z,15.53
2023-02-13T02:16:56.168Z,14.83
2023-02-13T02:19:42.278Z,16.37
2023-02-13T02:22:45.761Z,15.27
2023-02-13T02:25:46.743Z,14.00
2023-02-13T02:28:38.339Z,13.57
2023-02-13T02:31:32.562Z,13.43
2023-02-13T02:34:17.506Z,14.83
2023-02-13T02:37:21.239Z,14.40
2023-02-13T02:40:17.552Z,13.73
2023-02-13T02:43:02.272Z,15.97
2023-02-13T02:45:54.197Z,14.77
2023-02-13T02:48:43.295Z,11.90
2023-02-13T02:51:18.486Z,15.87
2023-02-13T02:54:27.897Z,14.57
2023-02-13T02:57:07.105Z,12.73
2023-02-13T02:59:54.667Z,13.27
2023-02-13T03:02:40.345Z,10.67
2023-02-13T03:05:36.860Z,16.17
2023-02-13T03:08:04.221Z,13.40
2023-02-13T03:10:52.755Z,16.63
2023-02-13T03:13:41.426Z,13.03
2023-02-13T03:16:33.727Z,14.63
2023-02-13T03:19:18.848Z,13.10
2023-02-13T03:22:14.229Z,15.70
2023-02-13T03:24:57.842Z,15.23
2023-02-13T03:28:12.026Z,13.47
2023-02-13T03:31:17.176Z,17.03
2023-02-13T03:34:01.621Z,18.17
2023-02-13T03:37:02.301Z,13.77
2023-02-13T03:39:50.036Z,16.03
2023-02-13T03:42:36.434Z,15.03
2023-02-13T03:45:25.308Z,11.40
2023-02-13T03:47:56.216Z,11.10
2023-02-13T03:50:25.416Z,13.37
2023-02-13T03:53:04.752Z,14.90
2023-02-13T03:55:54.030Z,12.93
2023-02-13T03:58:47.659Z,10.60
2023-02-13T04:01:17.907Z,10.63
2023-02-13T04:03:58.107Z,11.43
2023-02-13T04:06:31.288Z,9.33
2023-02-13T04:08:58.038Z,8.73
2023-02-13T04:11:36.649Z,8.30
2023-02-13T04:14:09.012Z,12.00
2023-02-13T04:16:42.669Z,8.57
2023-02-13T04:19:10.735Z,10.63
2023-02-13T04:21:39.625Z,8.77
2023-02-13T04:24:07.250Z,10.37
2023-02-13T04:26:38.898Z,11.77
2023-02-13T04:29:05.724Z,10.80
2023-02-13T04:31:32.143Z,12.13
2023-02-13T04:33:58.670Z,18.53
2023-02-13T04:36:24.827Z,13.23
2023-02-13T04:38:51.392Z,13.07
2023-02-13T04:41:18.272Z,13.70
2023-02-13T04:43:44.997Z,11.83
2023-02-13T04:46:11.349Z,10.43
2023-02-13T04:48:38.908Z,12.47
2023-02-13T04:51:05.590Z,12.13
2023-02-13T04:53:32.017Z,11.70
2023-02-13T04:55:58.353Z,9.13
2023-02-13T04:58:24.909Z,10.33
2023-02-13T05:00:51.073Z,9.60
2023-02-13T05:03:17.672Z,9.10
2023-02-13T05:05:44.024Z,12.03
2023-02-13T05:08:10.970Z,11.63
2023-02-13T05:10:37.234Z,10.57
2023-02-13T05:13:03.727Z,10.80
2023-02-13T05:15:30.156Z,10.20
2023-02-13T05:17:56.674Z,11.37
2023-02-13T05:20:22.921Z,9.87
2023-02-13T05:23:10.564Z,8.40
2023-02-13T05:25:39.536Z,9.00
2023-02-13T05:28:29.476Z,7.73
2023-02-13T05:30:55.830Z,12.30
2023-02-13T05:33:22.571Z,8.93
2023-02-13T05:35:49.304Z,8.83
2023-02-13T05:38:16.304Z,8.83
2023-02-13T05:40:42.869Z,10.20
2023-02-13T05:43:09.465Z,11.40
2023-02-13T05:45:35.848Z,9.20
2023-02-13T05:48:02.456Z,9.03
2023-02-13T05:50:28.891Z,11.03
2023-02-13T05:52:55.803Z,9.80
2023-02-13T05:55:22.255Z,9.90
2023-02-13T05:57:48.866Z,9.17
2023-02-13T06:00:15.900Z,8.97
2023-02-13T06:02:42.658Z,10.17
2023-02-13T06:05:09.008Z,9.20
2023-02-13T06:07:35.560Z,10.37
2023-02-13T06:10:01.700Z,9.70
2023-02-13T06:12:28.179Z,14.13
2023-02-13T06:14:54.384Z,11.60
2023-02-13T06:17:20.985Z,11.50
2023-02-13T06:19:47.219Z,13.03
2023-02-13T06:22:13.878Z,10.23
2023-02-13T06:24:40.383Z,9.50
2023-02-13T06:27:06.902Z,15.03
2023-02-13T06:29:33.467Z,10.43
2023-02-13T06:32:00.339Z,10.10
2023-02-13T06:34:26.629Z,11.90
2023-02-13T06:36:53.137Z,9.83
2023-02-13T06:39:20.717Z,11.17
2023-02-13T06:41:47.200Z,12.20
2023-02-13T06:44:13.592Z,10.10
2023-02-13T06:46:40.006Z,10.97
2023-02-13T06:49:06.223Z,9.90
2023-02-13T06:51:32.674Z,10.63
2023-02-13T06:53:58.863Z,9.63
2023-02-13T06:56:25.726Z,12.57
2023-02-13T06:58:51.957Z,9.17
2023-02-13T07:01:18.404Z,10.53
2023-02-13T07:03:45.209Z,10.63
2023-02-13T07:06:17.012Z,11.43
2023-02-13T07:08:43.230Z,9.90
2023-02-13T07:11:17.158Z,9.77
2023-02-13T07:13:43.328Z,10.20
2023-02-13T07:16:09.756Z,9.67
2023-02-13T07:18:37.635Z,10.03
2023-02-13T07:21:05.225Z,12.77
2023-02-13T07:23:31.484Z,13.47
2023-02-13T07:25:59.777Z,11.57
2023-02-13T07:28:27.109Z,12.53
2023-02-13T07:30:56.448Z,11.07
2023-02-13T07:33:23.632Z,9.83
2023-02-13T07:35:51.793Z,10.40
2023-02-13T07:38:18.963Z,9.83
2023-02-13T07:40:45.722Z,8.00
2023-02-13T07:43:12.421Z,7.07
2023-02-13T07:45:38.978Z,8.63
2023-02-13T07:48:05.441Z,6.97
2023-02-13T07:50:32.235Z,6.43
2023-02-13T07:53:00.568Z,7.13
2023-02-13T07:55:30.472Z,10.63
2023-02-13T07:57:56.682Z,8.73
2023-02-13T08:00:23.402Z,9.33
2023-02-13T08:02:50.004Z,10.27
2023-02-13T08:05:16.983Z,15.27
2023-02-13T08:07:43.633Z,18.40
2023-02-13T08:10:41.868Z,20.17
2023-02-13T08:13:09.835Z,12.83
2023-02-13T08:15:36.248Z,9.77
2023-02-13T08:18:02.887Z,9.77
2023-02-13T08:20:29.617Z,13.83
2023-02-13T08:23:04.315Z,9.03
2023-02-13T08:25:31.165Z,13.17
2023-02-13T08:27:58.599Z,9.93
2023-02-13T08:30:25.497Z,14.80
2023-02-13T08:32:54.530Z,12.63
2023-02-13T08:35:25.891Z,13.40
2023-02-13T08:37:53.364Z,11.50
2023-02-13T08:40:20.143Z,12.40
2023-02-13T08:42:46.286Z,12.47
2023-02-13T08:45:12.765Z,12.90
2023-02-13T08:47:39.163Z,11.10
2023-02-13T08:50:06.409Z,11.93
2023-02-13T08:52:32.652Z,11.27
2023-02-13T08:54:59.151Z,8.93
2023-02-13T08:57:25.301Z,8.17
2023-02-13T08:59:51.777Z,9.23
2023-02-13T09:02:18.020Z,7.00
2023-02-13T09:04:44.656Z,10.00
2023-02-13T09:07:11.756Z,12.47
2023-02-13T09:09:38.262Z,13.83
2023-02-13T09:12:05.213Z,10.40
2023-02-13T09:14:32.936Z,13.73
2023-02-13T09:17:00.366Z,7.83
2023-02-13T09:19:26.869Z,8.23
2023-02-13T09:21:53.318Z,7.60
2023-02-13T09:24:20.193Z,8.33
2023-02-13T09:26:46.480Z,8.47
2023-02-13T09:29:13.054Z,14.30
2023-02-13T09:31:39.520Z,9.67
2023-02-13T09:34:06.201Z,11.83
2023-02-13T09:36:32.608Z,10.03
2023-02-13T09:38:59.940Z,9.33
2023-02-13T09:41:39.147Z,10.90
2023-02-13T09:44:32.997Z,9.40
2023-02-13T09:47:11.174Z,10.70
2023-02-13T09:49:42.621Z,9.97
2023-02-13T09:52:09.839Z,11.57
2023-02-13T09:54:36.434Z,10.13
2023-02-13T09:57:13.885Z,9.73
2023-02-13T10:00:02.021Z,10.73
2023-02-13T10:02:35.900Z,9.13
2023-02-13T10:05:19.637Z,8.27
2023-02-13T10:07:57.648Z,10.03
2023-02-13T10:10:32.709Z,11.63
2023-02-13T10:13:30.659Z,9.90
2023-02-13T10:16:02.739Z,8.93
2023-02-13T10:18:37.525Z,12.30
2023-02-13T10:21:06.676Z,9.80
2023-02-13T10:23:40.117Z,11.00
2023-02-13T10:26:15.739Z,10.63
2023-02-13T10:29:08.408Z,10.43
2023-02-13T10:31:38.697Z,12.90
2023-02-13T10:34:12.063Z,10.97
2023-02-13T10:36:44.927Z,9.37
2023-02-13T10:39:26.360Z,7.57
2023-02-13T10:42:00.226Z,11.00
2023-02-13T10:45:01.810Z,9.67
2023-02-13T10:48:05.919Z,9.23
2023-02-13T10:51:16.561Z,9.50
2023-02-13T10:53:57.826Z,11.27
2023-02-13T10:56:42.373Z,6.93
2023-02-13T10:59:22.846Z,7.37
2023-02-13T11:01:55.970Z,11.17
2023-02-13T11:04:22.881Z,13.63
2023-02-13T11:06:58.990Z,7.53
2023-02-13T11:09:26.458Z,9.00
2023-02-13T11:11:53.451Z,9.20
2023-02-13T11:14:22.198Z,7.37
2023-02-13T11:16:55.491Z,7.17
2023-02-13T11:19:31.032Z,7.93
2023-02-13T11:22:03.936Z,7.00
2023-02-13T11:24:31.929Z,5.73
2023-02-13T11:27:01.933Z,6.17
2023-02-13T11:29:31.044Z,6.47
2023-02-13T11:32:23.312Z,5.67
2023-02-13T11:34:50.664Z,6.07
2023-02-13T11:37:29.409Z,5.10
2023-02-13T11:39:59.631Z,5.57
2023-02-13T11:42:33.807Z,6.20
2023-02-13T11:45:05.539Z,7.40
2023-02-13T11:47:35.528Z,6.60
2023-02-13T11:50:03.445Z,5.70
2023-02-13T11:52:35.020Z,5.97
2023-02-13T11:55:25.476Z,5.93
2023-02-13T11:58:22.358Z,5.27
2023-02-13T12:00:49.177Z,5.83
2023-02-13T12:03:21.587Z,6.60
2023-02-13T12:06:10.168Z,8.53
2023-02-13T12:08:38.029Z,8.17
2023-02-13T12:11:41.680Z,7.17
2023-02-13T12:14:17.427Z,4.70
2023-02-13T12:16:52.027Z,5.30
2023-02-13T12:19:34.914Z,6.30
2023-02-13T12:22:01.425Z,9.03
2023-02-13T12:24:41.039Z,7.47
2023-02-13T12:27:13.516Z,7.60
2023-02-13T12:30:17.197Z,6.60
2023-02-13T12:33:02.476Z,8.60
2023-02-13T12:35:31.332Z,8.80
2023-02-13T12:38:06.966Z,8.03
2023-02-13T12:40:49.510Z,13.30
2023-02-13T12:43:48.534Z,8.60
2023-02-13T12:46:42.893Z,10.77
2023-02-13T12:49:21.644Z,7.87
2023-02-13T12:52:16.341Z,6.93
2023-02-13T12:54:56.437Z,7.37
2023-02-13T12:57:32.677Z,7.03
2023-02-13T13:00:19.566Z,6.60
2023-02-13T13:03:10.876Z,7.63
2023-02-13T13:06:11.649Z,7.70
2023-02-13T13:09:07.542Z,8.13
2023-02-13T13:12:04.974Z,9.73
2023-02-13T13:14:58.669Z,8.33
2023-02-13T13:17:40.426Z,10.97
2023-02-13T13:20:16.472Z,9.40
2023-02-13T13:23:00.118Z,8.10
2023-02-13T13:25:43.224Z,6.77
2023-02-13T13:28:17.868Z,12.57
2023-02-13T13:30:46.038Z,9.37
2023-02-13T13:33:21.177Z,8.23
2023-02-13T13:35:55.156Z,11.27
2023-02-13T13:38:27.742Z,11.80
2023-02-13T13:41:26.482Z,8.13
2023-02-13T13:44:14.552Z,11.43
2023-02-13T13:46:46.904Z,18.43
2023-02-13T13:49:33.744Z,18.53
2023-02-13T13:52:21.811Z,9.93
2023-02-13T13:54:51.874Z,8.03
2023-02-13T13:57:20.630Z,7.40
2023-02-13T13:59:50.881Z,13.33
2023-02-13T14:02:17.365Z,7.77
2023-02-13T14:05:19.847Z,6.70
2023-02-13T14:07:52.659Z,10.67
2023-02-13T14:10:25.474Z,9.23
2023-02-13T14:12:54.989Z,8.07
2023-02-13T14:15:34.350Z,6.73
2023-02-13T14:18:03.650Z,9.83
2023-02-13T14:20:37.831Z,13.23
2023-02-13T14:23:32.111Z,9.77
2023-02-13T14:26:25.528Z,8.80
2023-02-13T14:28:51.854Z,10.57
2023-02-13T14:31:31.544Z,8.77
2023-02-13T14:33:57.959Z,10.63
2023-02-13T14:36:36.883Z,11.47
2023-02-13T14:39:16.947Z,15.37
2023-02-13T14:41:50.334Z,11.33
2023-02-13T14:44:23.507Z,14.27
2023-02-13T14:46:53.493Z,12.23
2023-02-13T14:49:26.284Z,12.50
2023-02-13T14:51:57.345Z,13.53
2023-02-13T14:54:31.952Z,11.83
2023-02-13T14:57:10.070Z,11.70
2023-02-13T14:59:40.524Z,10.00
2023-02-13T15:02:16.714Z,15.00
2023-02-13T15:04:50.523Z,10.30
2023-02-13T15:07:29.380Z,10.00
2023-02-13T15:10:04.833Z,8.83
2023-02-13T15:12:36.955Z,10.17
2023-02-13T15:15:26.658Z,8.10
2023-02-13T15:18:01.049Z,9.20
2023-02-13T15:20:32.525Z,8.83
2023-02-13T15:23:00.125Z,13.27
2023-02-13T15:25:38.648Z,8.83
2023-02-13T15:28:14.366Z,9.00
2023-02-13T15:30:41.237Z,14.83
2023-02-13T15:33:16.203Z,11.53
2023-02-13T15:35:43.089Z,12.47
2023-02-13T15:38:29.876Z,11.63
2023-02-13T15:41:08.355Z,10.83
2023-02-13T15:43:43.234Z,9.57
2023-02-13T15:46:26.460Z,8.77
2023-02-13T15:48:57.265Z,8.10
2023-02-13T15:51:29.931Z,7.03
2023-02-13T15:54:06.118Z,8.47
2023-02-13T15:56:34.346Z,11.63
2023-02-13T15:59:02.903Z,11.97
2023-02-13T16:01:31.375Z,12.70
2023-02-13T16:04:04.758Z,11.80
2023-02-13T16:06:33.216Z,11.00
2023-02-13T16:09:01.420Z,9.43
2023-02-13T16:11:30.024Z,11.03
2023-02-13T16:14:16.979Z,10.30
2023-02-13T16:16:59.389Z,9.07
2023-02-13T16:19:29.375Z,8.97
2023-02-13T16:21:58.818Z,7.50
2023-02-13T16:24:26.982Z,8.87
2023-02-13T16:26:54.255Z,9.43
2023-02-13T16:29:25.616Z,9.30
2023-02-13T16:31:53.340Z,12.53
2023-02-13T16:34:26.368Z,16.07
2023-02-13T16:36:54.284Z,14.40
2023-02-13T16:39:28.103Z,13.27
2023-02-13T16:41:55.347Z,11.63
2023-02-13T16:44:23.566Z,9.27
2023-02-13T16:47:01.054Z,10.87
2023-02-13T16:49:33.092Z,9.57
2023-02-13T16:52:25.356Z,11.57
2023-02-13T16:54:58.275Z,10.87
2023-02-13T16:57:32.606Z,10.50
2023-02-13T17:00:08.021Z,9.90
2023-02-13T17:02:42.355Z,11.27
2023-02-13T17:05:09.200Z,8.63
2023-02-13T17:07:47.674Z,10.90
2023-02-13T17:10:34.012Z,9.43
2023-02-13T17:13:02.189Z,14.97
2023-02-13T17:15:31.563Z,9.13
2023-02-13T17:17:59.092Z,7.17
2023-02-13T17:20:27.062Z,9.00
2023-02-13T17:22:58.661Z,11.37
2023-02-13T17:25:31.840Z,8.30
2023-02-13T17:28:01.761Z,10.20
2023-02-13T17:30:32.447Z,8.70
2023-02-13T17:33:07.101Z,7.67
2023-02-13T17:35:34.928Z,8.77
2023-02-13T17:38:01.600Z,9.17
2023-02-13T17:40:30.156Z,9.27
2023-02-13T17:42:58.078Z,9.23
2023-02-13T17:45:27.239Z,11.30
2023-02-13T17:47:53.914Z,10.93
2023-02-13T17:50:21.202Z,9.43
2023-02-13T17:52:48.704Z,8.20
2023-02-13T17:55:20.576Z,9.73
2023-02-13T17:57:48.178Z,12.00
2023-02-13T18:00:15.700Z,9.30
2023-02-13T18:02:42.564Z,8.03
2023-02-13T18:05:10.490Z,9.97
2023-02-13T18:07:39.137Z,9.70
2023-02-13T18:10:08.551Z,7.50
2023-02-13T18:12:35.145Z,8.43
2023-02-13T18:15:02.114Z,9.03
2023-02-13T18:17:28.998Z,13.97
2023-02-13T18:19:55.898Z,10.67
2023-02-13T18:22:22.137Z,10.30
2023-02-13T18:24:49.408Z,11.10
2023-02-13T18:27:16.122Z,9.47
2023-02-13T18:29:43.088Z,9.40
2023-02-13T18:32:11.224Z,8.97
2023-02-13T18:34:38.750Z,12.67
2023-02-13T18:37:06.501Z,9.27
2023-02-13T18:39:34.217Z,10.47
2023-02-13T18:42:01.294Z,10.40
2023-02-13T18:44:29.032Z,11.27
2023-02-13T18:46:56.187Z,11.33
2023-02-13T18:49:24.479Z,14.30
2023-02-13T18:51:51.542Z,8.57
2023-02-13T18:54:18.465Z,10.03
2023-02-13T18:56:45.744Z,9.83
2023-02-13T18:59:12.857Z,8.53
2023-02-13T19:01:39.838Z,11.37
2023-02-13T19:04:07.133Z,11.57
2023-02-13T19:06:34.072Z,9.43
2023-02-13T19:09:01.143Z,11.10
2023-02-13T19:11:28.134Z,11.33
2023-02-13T19:13:58.271Z,8.87
2023-02-13T19:16:25.103Z,11.00
2023-02-13T19:18:53.993Z,9.40
2023-02-13T19:21:23.532Z,10.97
2023-02-13T19:23:51.469Z,10.27
2023-02-13T19:26:21.097Z,13.87
2023-02-13T19:28:48.742Z,13.00
2023-02-13T19:31:18.611Z,10.53
2023-02-13T19:33:46.004Z,9.27
2023-02-13T19:36:15.003Z,11.63
2023-02-13T19:38:44.555Z,8.40
2023-02-13T19:41:17.474Z,11.87
2023-02-13T19:43:53.025Z,10.33
2023-02-13T19:46:25.498Z,9.83
2023-02-13T19:48:53.205Z,11.53
2023-02-13T19:51:23.807Z,10.73
2023-02-13T19:53:58.866Z,11.83
2023-02-13T19:56:27.518Z,9.27
2023-02-13T19:58:54.542Z,9.77
2023-02-13T20:01:23.537Z,10.70
2023-02-13T20:03:51.504Z,9.53
2023-02-13T20:06:24.023Z,8.53
2023-02-13T20:08:52.094Z,10.40
2023-02-13T20:11:20.594Z,9.93
2023-02-13T20:13:48.025Z,10.33
2023-02-13T20:16:16.045Z,9.73
2023-02-13T20:18:43.275Z,11.93
2023-02-13T20:21:12.634Z,11.90
2023-02-13T20:23:40.194Z,12.27
2023-02-13T20:26:13.440Z,13.03
2023-02-13T20:28:42.502Z,11.43
2023-02-13T20:31:10.939Z,10.97
2023-02-13T20:33:40.010Z,13.80
2023-02-13T20:36:30.156Z,10.63
2023-02-13T20:38:59.960Z,12.77
2023-02-13T20:41:32.738Z,12.47
2023-02-13T20:44:03.046Z,10.43
2023-02-13T20:46:35.251Z,12.50
2023-02-13T20:49:02.459Z,10.33
2023-02-13T20:51:29.370Z,10.70
2023-02-13T20:53:56.545Z,10.93
2023-02-13T20:56:26.795Z,15.30
2023-02-13T20:58:57.372Z,10.13
2023-02-13T21:01:30.623Z,12.77
2023-02-13T21:03:58.414Z,12.83
2023-02-13T21:06:26.503Z,9.20
2023-02-13T21:08:53.666Z,12.07
2023-02-13T21:11:21.081Z,15.23
2023-02-13T21:13:48.681Z,25.83
2023-02-13T21:16:18.860Z,22.97
2023-02-13T21:18:51.376Z,19.87
2023-02-13T21:21:18.394Z,14.10
2023-02-13T21:23:45.613Z,10.23
2023-02-13T21:26:16.570Z,14.30
2023-02-13T21:28:45.638Z,11.27
2023-02-13T21:31:15.131Z,12.97
2023-02-13T21:33:42.373Z,21.87
2023-02-13T21:36:10.827Z,15.73
2023-02-13T21:38:39.181Z,13.80
2023-02-13T21:41:17.107Z,13.33
2023-02-13T21:43:47.471Z,10.67
2023-02-13T21:46:18.064Z,11.07
2023-02-13T21:48:46.335Z,15.57
2023-02-13T21:51:14.690Z,11.23
2023-02-13T21:53:42.551Z,14.23
2023-02-13T21:56:14.396Z,17.37
2023-02-13T21:58:42.641Z,15.50
2023-02-13T22:01:23.894Z,13.27
2023-02-13T22:04:00.217Z,15.90
2023-02-13T22:06:29.324Z,16.80
2023-02-13T22:09:01.268Z,16.03
2023-02-13T22:11:28.644Z,18.00
2023-02-13T22:13:59.618Z,11.87
2023-02-13T22:16:26.060Z,13.17
2023-02-13T22:18:52.973Z,14.83
2023-02-13T22:21:22.202Z,14.47
2023-02-13T22:23:50.276Z,16.10
2023-02-13T22:26:25.108Z,16.27
2023-02-13T22:28:53.482Z,15.40
2023-02-13T22:31:23.549Z,10.97
2023-02-13T22:34:02.987Z,12.80
2023-02-13T22:36:38.185Z,15.20
2023-02-13T22:39:05.871Z,12.00
2023-02-13T22:41:32.452Z,17.67
2023-02-13T22:43:59.287Z,14.43
2023-02-13T22:46:30.592Z,26.93
2023-02-13T22:48:58.034Z,18.67
2023-02-13T22:51:27.792Z,12.57
2023-02-13T22:53:56.180Z,13.53
2023-02-13T22:56:24.379Z,19.13
2023-02-13T22:58:51.556Z,14.23
2023-02-13T23:01:20.583Z,12.17
2023-02-13T23:03:47.261Z,14.50
2023-02-13T23:06:15.027Z,24.07
2023-02-13T23:08:42.402Z,19.10
2023-02-13T23:11:30.211Z,16.53
2023-02-13T23:13:57.538Z,14.47
2023-02-13T23:16:24.041Z,13.07
2023-02-13T23:18:57.063Z,13.77
2023-02-13T23:21:24.078Z,14.20
2023-02-13T23:23:51.074Z,13.17
2023-02-13T23:26:17.313Z,12.90
2023-02-13T23:28:44.420Z,13.07
2023-02-13T23:31:10.951Z,11.50
2023-02-13T23:33:37.880Z,13.27
2023-02-13T23:36:04.444Z,11.50
2023-02-13T23:38:31.391Z,12.00
2023-02-13T23:41:05.786Z,14.60
2023-02-13T23:43:32.438Z,12.67
2023-02-13T23:45:58.617Z,12.13
2023-02-13T23:48:25.507Z,10.50
2023-02-13T23:50:52.455Z,13.70
2023-02-13T23:53:18.941Z,13.10
2023-02-13T23:55:45.125Z,10.43
2023-02-13T23:58:11.597Z,12.93
